Flight Briefing for CPX119

Departure Arrival
Los Angeles International Airport (KLAX)
Click to view FAA NOTAMS
Ted Stevens Anchorage International Airport (PANC)
Click to view FAA NOTAMS
Departure Time Arrival Time
N/A N/A
Aircraft Distance
B747-400BCF 2089nm
Departure METAR Arrival METAR
KLAX 181453Z 08003KT 10SM FEW011 15/09 A2998 RMK AO2 SLP151 T01500094 53008 PANC 181453Z 13008KT 10SM FEW060 BKN100 BKN210 04/01 A2937 RMK AO2 SLP948 T00440006 51013
Suggested Route
SUMMR1 SCTRR PYE J143 ENI FOT BOXER B453 MDO WITTI4


View recent IFR Routes data
Notes



Charts and Procedures

Charts for KLAX
No chart available
Charts for PANC
No chart available

Windy.com Weather Map